North Spring Valley, Nevada Weather observations

Data are for 10 minute period ending at time listed.
 Day   Time   Solar   Ave.   Ave.  Ave.  Vector  Max.   Baro.   Total    
  of    of     Rad.   Air    Rel.  Wind   Wind   Wind  Press.  Precip.   
Year   Day            Temp.  Hum.  Speed  Dir.   Gust                    
2016   (PST)  Kw/m2    F      %     mph   deg.    mph    mb.     in.     
-------------------------------------------------------------------------
 241   17:20   0.12   82.1    18    3.1   261     5.8   830.3    0.00 
 241   17:30   0.03   73.1    24    5.8   265     6.4   830.3    0.00 
 241   17:40   0.02   71.9    23    5.8   270     6.5   830.3    0.00 
 241   17:50   0.02   71.3    23    5.2   269     5.9   830.3    0.00 
 241   18:00   0.01   70.2    23    5.8   266     6.9   830.5    0.00 
 241   18:10   0.01   70.2    22    6.0   265     6.7   830.7    0.00 
 241   18:20   0.01   68.5    24    5.1    42     7.0   830.9    0.00 
 241   18:30   0.00   71.0    19    1.6   333     5.6   831.2    0.00 
 241   18:40   0.00   72.6    17    3.8   245     5.3   831.3    0.00 
 241   18:50   0.00   69.8    20    5.0   240     8.0   831.5    0.00 
 241   19:00   0.00   69.7    21    5.5   242     7.5   831.6    0.00 
 241   19:10   0.00   68.9    21    6.1   233     8.0   831.8    0.00 
 241   19:20   0.00   71.3    19    6.3   228     9.0   831.9    0.00 
 241   19:30   0.00   72.1    18    6.3   224    10.1   832.0    0.00 
 241   19:40   0.00   72.9    17    5.8   217     8.3   832.1    0.00 
 241   19:50   0.00   72.4    16    4.6   199     7.5   832.1    0.00 
 241   20:00   0.00   72.2    17    4.7   211     7.4   832.1    0.00 
 241   20:10   0.00   70.3    20    5.2   237     7.2   832.2    0.00 
 241   20:20   0.00   67.3    23    5.0   254     6.3   832.2    0.00 
 241   20:30   0.00   65.3    26    4.5   267     5.5   832.2    0.00 
 241   20:40   0.00   65.0    25    4.8   235     7.1   832.3    0.00 
 241   20:50   0.00   68.4    20    4.5   218     6.6   832.3    0.00 
 241   21:00   0.00   66.2    25    1.9   339     5.3   832.4    0.00 
 241   21:10   0.00   61.6    28    3.3   343     5.6   832.6    0.00 
 241   21:20   0.00   61.9    29    3.2   294     5.8   832.7    0.00 
 241   21:30   0.00   60.6    29    2.8   245     6.1   832.9    0.00 
 241   21:40   0.00   59.9    31    2.2   257     4.0   832.9    0.00 
 241   21:50   0.00   59.7    33    4.9   263     6.9   832.9    0.00 
 241   22:00   0.00   58.4    33    5.9   254     6.9   832.9    0.00 
 241   22:10   0.00   59.2    32    5.5   256     6.4   832.9    0.00 
 241   22:20   0.00   58.7    34    4.4   257     5.5   832.9    0.00 
 241   22:30   0.00   57.2    38    3.4   265     5.4   833.0    0.00 
 241   22:40   0.00   58.4    34    2.9   264     5.0   833.0    0.00 
 241   22:50   0.00   56.7    34    2.2   171     6.2   833.1    0.00 
 241   23:00   0.00   54.1    34    2.5   229     4.0   833.1    0.00 
 241   23:10   0.00   55.8    32    0.7   259     3.7   833.1    0.00 
 241   23:20   0.00   57.1    30    0.7   166     2.0   833.2    0.00 
 241   23:30   0.00   56.6    30    0.7   197     2.9   833.2    0.00 
 241   23:40   0.00   56.0    31    1.9   221     2.7   833.2    0.00 
 241   23:50   0.00   57.0    30    0.9   202     2.4   833.2    0.00 
 242    0:00   0.00   57.5    28    2.8   205     3.6   833.2    0.00 
 242    0:10   0.00   57.9    28    2.7   228     3.7   833.2    0.00 
 242    0:20   0.00   59.8    26    1.7   206     2.5   833.2    0.00 
 242    0:30   0.00   56.2    32    3.2   157     4.7   833.4    0.00 
 242    0:40   0.00   51.1    36    3.0   188     5.1   833.5    0.00 
 242    0:50   0.00   53.3    31    3.9   194     5.6   833.6    0.00 
 242    1:00   0.00   53.4    30    2.9   199     4.2   833.6    0.00 
 242    1:10   0.00   54.8    28    2.2   160     3.3   833.5    0.00 
 242    1:20   0.00   54.1    34    1.6   263     3.9   833.5    0.00 
 242    1:30   0.00   50.2    44    4.7   267     6.1   833.5    0.00 
 242    1:40   0.00   50.0    46    5.8   262     6.3   833.4    0.00 
 242    1:50   0.00   52.7    41    6.0   262     7.7   833.3    0.00 
 242    2:00   0.00   52.7    40    4.8   322     7.0   833.4    0.00 
 242    2:10   0.00   47.7    45    2.7   347     4.0   833.5    0.00 
 242    2:20   0.00   49.0    44    5.0   296     6.3   833.5    0.00 
 242    2:30   0.00   49.2    44    4.2   279     5.8   833.5    0.00 
 242    2:40   0.00   50.2    41    2.5   290     4.3   833.5    0.00 
 242    2:50   0.00   50.9    38    0.8    48     2.5   833.6    0.00 
 242    3:00   0.00   50.6    35    1.3   355     2.6   833.6    0.00 
 242    3:10   0.00   49.4    38    1.1   323     2.3   833.6    0.00 
 242    3:20   0.00   47.3    47    2.4   267     4.0   833.6    0.00 
 242    3:30   0.00   45.3    48    2.0     1     3.0   833.6    0.00 
 242    3:40   0.00   44.9    51    3.3   306     4.1   833.7    0.00 
 242    3:50   0.00   46.9    47    2.4   306     3.1   833.8    0.00 
 242    4:00   0.00   46.1    54    5.0   279     6.3   833.9    0.00 
 242    4:10   0.00   47.6    47    4.6   273     6.2   833.9    0.00 
 242    4:20   0.00   50.3    44    3.2   292     4.5   833.9    0.00 
 242    4:30   0.00   48.7    46    3.5   280     5.3   833.9    0.00 
 242    4:40   0.00   46.9    51    2.5   319     4.5   833.9    0.00 
 242    4:50   0.00   46.1    50    1.5   291     3.9   834.0    0.00 
 242    5:00   0.00   47.2    48    3.5   258     4.5   834.1    0.00 
 242    5:10   0.01   48.1    46    3.3   250     4.5   834.1    0.00 
 242    5:20   0.01   48.2    43    0.9   210     2.3   834.3    0.00 
 242    5:30   0.03   49.5    40    2.1   205     2.7   834.5    0.00 
 242    5:40   0.06   49.6    45    2.2   208     3.3   834.5    0.00 
 242    5:50   0.09   47.6    54    0.2    42     1.7   834.6    0.00 
 242    6:00   0.12   47.2    56    0.8   298     1.7   834.6    0.00 
 242    6:10   0.15   49.7    49    0.3    51     1.5   834.7    0.00 
 242    6:20   0.18   54.2    38    0.0   167     0.3   834.8    0.00 
 242    6:30   0.22   55.7    41    2.2   114     3.5   834.9    0.00 
 242    6:40   0.25   54.0    42    2.6   118     3.6   835.1    0.00 
 242    6:50   0.28   55.4    37    1.4    82     2.6   835.2    0.00 
 242    7:00   0.32   57.0    36    1.8    76     2.7   835.1    0.00 
 242    7:10   0.33   57.9    35    1.8    63     3.3   835.1    0.00 
 242    7:20   0.36   60.4    33    0.6    60     1.9   835.2    0.00 
 242    7:30   0.43   63.6    32    0.2   347     1.5   835.2    0.00 
 242    7:40   0.46   64.3    31    0.2   343     1.7   835.1    0.00 
 242    7:50   0.50   66.5    30    0.7    59     2.0   835.1    0.00 
 242    8:00   0.53   66.6    31    1.4    74     2.8   835.0    0.00 
 242    8:10   0.56   68.5    29    0.5    66     2.2   835.0    0.00 
 242    8:20   0.57   70.7    25    0.4    71     2.9   834.9    0.00 
 242    8:30   0.63   71.5    24    0.6    79     2.1   834.8    0.00 
 242    8:40   0.66   72.5    24    0.5    19     1.6   834.8    0.00 
 242    8:50   0.68   73.8    23    0.5    23     1.7   834.6    0.00 
 242    9:00   0.71   75.4    21    0.8    60     2.6   834.5    0.00 
 242    9:10   0.74   74.9    24    1.8    81     3.3   834.4    0.00 
 242    9:20   0.76   76.2    23    1.4    93     3.5   834.1    0.00 
 242    9:30   0.79   77.5    21    1.1    95     3.1   834.0    0.00 
 242    9:40   0.81   79.1    20    0.8    84     2.6   834.0    0.00 
 242    9:50   0.83   80.1    20    0.8    47     3.1   833.9    0.00 
 242   10:00   0.85   80.8    20    1.6    60     4.3   833.8    0.00 
 242   10:10   0.87   80.8    20    1.6    56     4.2   833.7    0.00 
 242   10:20   0.88   81.6    19    1.8    30     3.8   833.6    0.00 
 242   10:30   0.90   82.4    18    1.8    35     4.1   833.6    0.00 
 242   10:40   0.91   83.4    17    1.3    30     3.1   833.5    0.00 
 242   10:50   0.92   84.3    16    1.6    77     4.5   833.4    0.00 
 242   11:00   0.92   84.1    17    1.8    59     4.1   833.3    0.00 
 242   11:10   0.92   85.0    16    1.1    61     5.3   833.2    0.00 
 242   11:20   0.94   85.0    14    2.4    48     6.6   833.2    0.00 
 242   11:30   0.94   84.8    15    2.4    74     8.1   833.2    0.00 
 242   11:40   0.94   85.2    14    2.0    72     5.5   833.1    0.00 
 242   11:50   0.94   85.3    15    5.2   357    10.0   833.0    0.00 
 242   12:00   0.94   85.2    15    5.0     1     9.4   832.9    0.00 
 242   12:10   0.94   84.9    18    5.7    48     9.3   832.9    0.00 
 242   12:20   0.93   85.0    14    2.9    50     8.5   832.9    0.00 
 242   12:30   0.93   86.8    12    2.3   243     5.9   832.9    0.00 
 242   12:40   0.92   87.0    12    4.6   152     8.5   832.7    0.00 
 242   12:50   0.90   85.5    12    4.3    70     9.6   832.7    0.00 
 242   13:00   0.89   86.2    14    2.2    67     5.3   832.6    0.00 
 242   13:10   0.88   87.5    12    2.0   140     6.7   832.5    0.00 
 242   13:20   0.87   88.0    12    2.9   163     9.1   832.3    0.00 
 242   13:30   0.85   87.2    11    5.4   165     8.8   832.2    0.00 
 242   13:40   0.83   87.9    11    5.8   178    10.1   832.1    0.00 
 242   13:50   0.81   87.9    11    3.3   200     8.1   831.9    0.00 
 242   14:00   0.79   88.7    12    2.8   142     8.1   831.9    0.00 
 242   14:10   0.76   87.1    13    3.4    44     7.2   831.8    0.00 
 242   14:20   0.74   86.9    14    4.6    62    11.5   831.7    0.00 
 242   14:30   0.71   86.6    11    2.7   104     6.9   831.6    0.00 
 242   14:40   0.68   87.0    12    2.9    70     5.9   831.6    0.00 
 242   14:50   0.65   87.3    13    2.4    64     6.2   831.5    0.00 
 242   15:00   0.60   88.0    10    0.9    65     3.2   831.4    0.00 
 242   15:10   0.55   87.8    13    3.2    16     6.7   831.4    0.00 
 242   15:20   0.49   88.1    12    1.5   288     3.3   831.3    0.00 
 242   15:30   0.41   88.2    12    1.2   232     4.0   831.2    0.00 
 242   15:40   0.48   87.6    12    2.8   128     6.9   831.2    0.00 
 242   15:50   0.34   87.2    11    1.9    97     3.6   831.1    0.00 
 242   16:00   0.19   86.0    13    0.5    36     1.8   831.1    0.00 
 242   16:10   0.27   85.6    12    2.3   124     5.3   831.0    0.00 
 242   16:20   0.35   86.1    13    1.2    78     3.5   830.9    0.00 
 242   16:30   0.30   88.3    11    0.8   148     3.1   830.8    0.00 
 242   16:40   0.23   87.2    11    2.3   177     4.7   830.8    0.00 
 242   16:50   0.16   86.0    10    0.7   124     2.8   830.7    0.00 
 242   17:00   0.23   87.1    15    1.0   158     4.8   830.6    0.00 
 242   17:10   0.15   86.3    11    3.8   196     6.5   830.6    0.00 

Return to North Spring Valley graphs page.


Western Regional Climate Center,wrcc@dri.edu